Time;durP1;ratioP1;P1;durP2;ratioP2;P2;SDS_P1;SDS_P2;PMS_P1;PMS_P2;Temp;Humidity;BMP_temperature;BMP_pressure;BME280_temperature;BME280_humidity;BME280_pressure;Samples;Min_cycle;Max_cycle;Signal;HPM_P1;HPM_P2
2022/10/21 00:01:43;;;;;;;22.15;9.80;;;16.90;99.90;;;;;;4946500;28;20107;-73
2022/10/21 00:04:09;;;;;;;18.80;9.88;;;16.90;99.90;;;;;;4953160;28;20031;-73
2022/10/21 00:06:34;;;;;;;19.90;10.90;;;16.90;99.90;;;;;;4956924;28;20413;-74
2022/10/21 00:09:00;;;;;;;23.30;11.27;;;16.80;99.90;;;;;;4953635;28;20066;-75
2022/10/21 00:11:28;;;;;;;20.52;10.80;;;16.80;99.90;;;;;;4964197;28;20525;-74
2022/10/21 00:13:53;;;;;;;19.08;11.25;;;16.80;99.90;;;;;;4956585;28;20034;-76
2022/10/21 00:16:19;;;;;;;24.80;11.43;;;16.80;99.90;;;;;;4949918;28;20033;-76
2022/10/21 00:18:47;;;;;;;23.80;10.63;;;16.80;99.90;;;;;;4949074;28;20035;-73
2022/10/21 00:21:18;;;;;;;22.73;11.02;;;16.80;99.90;;;;;;4963353;28;20480;-74
2022/10/21 00:23:44;;;;;;;22.67;10.55;;;16.80;99.90;;;;;;4952601;28;20094;-74
2022/10/21 00:26:11;;;;;;;18.65;9.88;;;16.90;99.90;;;;;;4953452;28;20071;-74
2022/10/21 00:28:39;;;;;;;25.42;10.43;;;16.80;99.90;;;;;;4952295;28;20043;-75
2022/10/21 00:31:07;;;;;;;26.92;11.18;;;16.80;99.90;;;;;;4958829;28;20592;-75
2022/10/21 00:33:33;;;;;;;17.15;10.27;;;16.90;99.90;;;;;;4954064;28;20024;-76
2022/10/21 00:36:03;;;;;;;21.25;10.38;;;16.80;99.90;;;;;;4950646;28;20027;-76
2022/10/21 00:38:30;;;;;;;23.77;10.77;;;16.80;99.90;;;;;;4954593;28;20019;-76
2022/10/21 00:40:56;;;;;;;17.30;11.07;;;16.80;99.90;;;;;;4948937;28;20027;-74
2022/10/21 00:43:22;;;;;;;22.52;10.50;;;16.80;99.90;;;;;;4949233;28;20483;-75
2022/10/21 00:45:56;;;;;;;27.80;10.80;;;16.80;99.90;;;;;;4951848;28;20027;-74
2022/10/21 00:48:33;;;;;;;19.42;10.88;;;16.70;99.90;;;;;;4950737;28;20046;-75
2022/10/21 00:51:07;;;;;;;20.20;10.35;;;16.80;99.90;;;;;;4946814;28;20457;-74
2022/10/21 00:53:35;;;;;;;20.90;10.77;;;16.70;99.90;;;;;;4956924;28;20127;-74
2022/10/21 00:56:13;;;;;;;21.42;10.88;;;16.70;99.90;;;;;;4952313;28;20065;-74
2022/10/21 00:58:39;;;;;;;20.55;10.90;;;16.70;99.90;;;;;;4962438;28;20022;-74
2022/10/21 01:01:09;;;;;;;19.70;10.70;;;16.70;99.90;;;;;;4957319;28;20030;-73
2022/10/21 01:03:35;;;;;;;24.83;10.07;;;16.70;99.90;;;;;;4955030;28;20118;-74
2022/10/21 01:06:05;;;;;;;20.70;10.48;;;16.70;99.90;;;;;;4956599;28;20142;-74
2022/10/21 01:08:33;;;;;;;15.77;10.63;;;16.70;99.90;;;;;;4950305;28;20027;-74
2022/10/21 01:11:03;;;;;;;22.13;9.32;;;16.70;99.90;;;;;;4953416;28;20027;-74
2022/10/21 01:13:56;;;;;;;20.75;10.70;;;16.70;99.90;;;;;;4955564;28;20023;-74
2022/10/21 01:16:53;;;;;;;17.25;9.45;;;16.70;99.90;;;;;;4954245;28;20507;-75
2022/10/21 01:19:19;;;;;;;19.30;9.73;;;16.70;99.90;;;;;;4958599;28;20027;-74
2022/10/21 01:21:59;;;;;;;14.45;9.77;;;16.60;99.90;;;;;;4964371;28;20456;-74
2022/10/21 01:24:46;;;;;;;14.32;9.65;;;16.60;99.90;;;;;;4957847;28;20094;-72
2022/10/21 01:27:30;;;;;;;16.85;9.88;;;16.60;99.90;;;;;;4958978;28;20038;-75
2022/10/21 01:30:32;;;;;;;20.10;9.43;;;16.60;99.90;;;;;;4955421;28;20125;-74
2022/10/21 01:33:35;;;;;;;18.25;8.95;;;16.60;99.90;;;;;;4963948;28;20027;-74
2022/10/21 01:36:24;;;;;;;15.77;8.50;;;16.60;99.90;;;;;;4949156;28;20047;-74
2022/10/21 01:39:21;;;;;;;19.25;8.80;;;16.60;99.90;;;;;;4958044;28;20020;-76
2022/10/21 01:42:06;;;;;;;16.73;8.93;;;16.60;99.90;;;;;;4951200;28;20032;-74
2022/10/21 01:44:50;;;;;;;15.55;9.23;;;16.50;99.90;;;;;;4957211;28;20468;-76
2022/10/21 01:47:32;;;;;;;18.30;9.93;;;16.50;99.90;;;;;;4955292;28;20106;-74
2022/10/21 01:50:09;;;;;;;18.88;9.23;;;16.50;99.90;;;;;;4965740;28;20094;-74
2022/10/21 01:52:36;;;;;;;17.70;9.82;;;16.50;99.90;;;;;;4953299;28;20027;-74
2022/10/21 01:55:05;;;;;;;20.00;9.68;;;16.50;99.90;;;;;;4963170;28;20031;-75
2022/10/21 01:57:39;;;;;;;15.13;8.82;;;16.40;99.90;;;;;;4962083;28;20031;-73
2022/10/21 02:00:06;;;;;;;23.27;9.93;;;16.30;99.90;;;;;;4951145;28;20090;-75
2022/10/21 02:02:36;;;;;;;21.17;9.57;;;16.30;99.90;;;;;;4951614;28;20376;-73
2022/10/21 02:05:08;;;;;;;15.70;9.50;;;16.40;99.90;;;;;;4962216;28;20034;-76
2022/10/21 02:07:34;;;;;;;15.93;9.48;;;16.30;99.90;;;;;;4971164;28;20116;-77
2022/10/21 02:09:59;;;;;;;23.45;9.13;;;16.30;99.90;;;;;;4958014;28;20039;-74
2022/10/21 02:12:28;;;;;;;17.77;8.73;;;16.30;99.90;;;;;;4964816;28;20038;-76
2022/10/21 02:14:54;;;;;;;21.15;9.38;;;16.30;99.90;;;;;;4956836;28;20048;-75
2022/10/21 02:17:21;;;;;;;17.77;9.38;;;16.20;99.90;;;;;;4958069;28;20019;-75
2022/10/21 02:19:47;;;;;;;26.00;9.50;;;16.20;99.90;;;;;;4961020;28;20023;-75
2022/10/21 02:22:18;;;;;;;21.17;9.60;;;16.10;99.90;;;;;;4954172;28;20027;-75
2022/10/21 02:25:00;;;;;;;16.17;9.38;;;16.10;99.90;;;;;;4952784;28;20387;-75
2022/10/21 02:27:26;;;;;;;19.65;10.00;;;16.10;99.90;;;;;;4950674;28;20118;-74
2022/10/21 02:29:57;;;;;;;17.98;9.07;;;16.10;99.90;;;;;;4956044;28;20147;-76
2022/10/21 02:32:42;;;;;;;18.92;9.45;;;16.10;99.90;;;;;;4960734;28;20023;-75
2022/10/21 02:35:37;;;;;;;21.70;8.95;;;16.00;99.90;;;;;;4956076;28;20035;-75
2022/10/21 02:38:23;;;;;;;20.80;9.18;;;16.00;99.90;;;;;;4972522;28;20512;-75
2022/10/21 02:40:57;;;;;;;16.77;8.10;;;16.00;99.90;;;;;;4956723;28;20031;-75
2022/10/21 02:43:37;;;;;;;14.68;8.50;;;16.00;99.90;;;;;;4958359;28;20053;-75
2022/10/21 02:46:09;;;;;;;21.10;10.57;;;16.00;99.90;;;;;;4955926;28;20023;-74
2022/10/21 02:48:37;;;;;;;22.52;9.30;;;15.90;99.90;;;;;;4961948;28;20600;-74
2022/10/21 02:51:04;;;;;;;21.50;8.63;;;15.90;99.90;;;;;;4949929;28;20044;-74
2022/10/21 02:53:30;;;;;;;20.58;9.00;;;15.90;99.90;;;;;;4953108;28;20031;-75
2022/10/21 02:55:56;;;;;;;18.48;9.45;;;15.80;99.90;;;;;;4957829;28;20038;-76
2022/10/21 02:58:21;;;;;;;21.45;9.38;;;15.80;99.90;;;;;;4952127;28;20118;-74
2022/10/21 03:00:47;;;;;;;22.08;9.88;;;15.80;99.90;;;;;;4954222;28;20027;-75
2022/10/21 03:03:13;;;;;;;12.68;8.60;;;15.80;99.90;;;;;;4956323;28;20023;-75
2022/10/21 03:05:41;;;;;;;16.48;9.23;;;15.70;99.90;;;;;;4954368;28;20067;-75
2022/10/21 03:08:06;;;;;;;22.73;9.18;;;15.80;99.90;;;;;;4957281;28;20031;-76
2022/10/21 03:10:34;;;;;;;17.17;8.57;;;15.70;99.90;;;;;;4957464;28;20024;-75
2022/10/21 03:13:00;;;;;;;16.88;9.48;;;15.70;99.90;;;;;;4959316;28;20062;-75
2022/10/21 03:15:25;;;;;;;23.30;9.15;;;15.70;99.90;;;;;;4958103;28;20058;-76
2022/10/21 03:17:51;;;;;;;14.20;9.57;;;15.70;99.90;;;;;;4958036;28;20019;-73
2022/10/21 03:20:16;;;;;;;21.38;9.60;;;15.70;99.90;;;;;;4956534;28;20087;-74
2022/10/21 03:22:43;;;;;;;17.85;9.23;;;15.60;99.90;;;;;;4947690;28;20479;-75
2022/10/21 03:25:09;;;;;;;13.55;8.80;;;15.60;99.90;;;;;;4951949;28;20102;-74
2022/10/21 03:27:37;;;;;;;19.85;8.90;;;15.60;99.90;;;;;;4955702;28;20042;-75
2022/10/21 03:30:04;;;;;;;18.58;9.73;;;15.60;99.90;;;;;;4952668;28;20035;-75
2022/10/21 03:32:29;;;;;;;23.27;9.50;;;15.60;99.90;;;;;;4957245;28;20023;-76
2022/10/21 03:34:55;;;;;;;16.08;9.27;;;15.60;99.90;;;;;;4954743;28;20341;-76
2022/10/21 03:37:23;;;;;;;15.75;8.77;;;15.50;99.90;;;;;;4955511;28;20039;-74
2022/10/21 03:39:51;;;;;;;15.75;9.40;;;15.60;99.90;;;;;;4952261;28;20027;-76
2022/10/21 03:42:17;;;;;;;16.02;8.40;;;15.50;99.90;;;;;;4950366;28;20023;-72
2022/10/21 03:44:43;;;;;;;19.60;9.25;;;15.50;99.90;;;;;;4957446;28;20098;-74
2022/10/21 03:47:08;;;;;;;23.13;9.25;;;15.50;99.90;;;;;;4946417;28;20440;-77
2022/10/21 03:49:37;;;;;;;18.10;9.27;;;15.40;99.90;;;;;;4955352;28;20015;-75
2022/10/21 03:52:05;;;;;;;19.38;8.48;;;15.40;99.90;;;;;;4952357;28;20042;-75
2022/10/21 03:54:30;;;;;;;17.20;8.77;;;15.40;99.90;;;;;;4954439;28;20055;-75
2022/10/21 03:56:56;;;;;;;17.90;9.02;;;15.40;99.90;;;;;;4958210;28;20069;-75
2022/10/21 03:59:21;;;;;;;15.48;8.57;;;15.40;99.90;;;;;;4958358;28;20026;-75
2022/10/21 04:01:47;;;;;;;13.25;8.02;;;15.40;99.90;;;;;;4958943;28;20042;-75
2022/10/21 04:04:13;;;;;;;16.92;9.23;;;15.40;99.90;;;;;;4946530;28;20517;-76
2022/10/21 04:06:40;;;;;;;10.02;7.85;;;15.40;99.90;;;;;;4951345;28;20034;-75
2022/10/21 04:09:06;;;;;;;13.05;8.15;;;15.40;99.90;;;;;;4955614;28;20028;-75
2022/10/21 04:11:34;;;;;;;12.98;8.95;;;15.40;99.90;;;;;;4953067;28;20031;-75
2022/10/21 04:14:00;;;;;;;16.17;8.20;;;15.30;99.90;;;;;;4955146;28;20027;-75
2022/10/21 04:16:28;;;;;;;17.33;8.25;;;15.40;99.90;;;;;;4948073;28;20150;-75
2022/10/21 04:18:53;;;;;;;17.48;7.82;;;15.40;99.90;;;;;;4939109;28;20023;-73
2022/10/21 04:21:19;;;;;;;16.10;8.38;;;15.40;99.90;;;;;;4955704;28;20510;-75
2022/10/21 04:23:44;;;;;;;10.65;7.03;;;15.40;99.90;;;;;;4952614;28;20042;-75
2022/10/21 04:26:11;;;;;;;13.82;7.43;;;15.30;99.90;;;;;;4954343;28;20143;-75
2022/10/21 04:28:39;;;;;;;14.88;8.10;;;15.30;99.90;;;;;;4953429;28;20042;-75
2022/10/21 04:31:05;;;;;;;15.10;7.40;;;15.30;99.90;;;;;;4956547;28;20107;-76
2022/10/21 04:33:32;;;;;;;14.88;6.90;;;15.30;99.90;;;;;;4958400;28;20124;-75
2022/10/21 04:35:58;;;;;;;13.85;6.90;;;15.30;99.90;;;;;;4949514;28;20562;-74
2022/10/21 04:38:24;;;;;;;12.27;6.43;;;15.30;99.90;;;;;;4948332;28;20114;-75
2022/10/21 04:41:01;;;;;;;16.65;5.63;;;15.40;99.90;;;;;;4952913;28;20027;-74
2022/10/21 04:43:27;;;;;;;9.18;6.00;;;15.40;99.90;;;;;;4955482;28;20487;-74
2022/10/21 04:45:53;;;;;;;13.00;6.97;;;15.30;99.90;;;;;;4951689;28;20170;-72
2022/10/21 04:48:20;;;;;;;10.15;5.88;;;15.30;99.90;;;;;;4953558;28;20113;-76
2022/10/21 04:50:50;;;;;;;10.73;6.20;;;15.30;99.90;;;;;;4957509;28;20146;-75
2022/10/21 04:53:16;;;;;;;15.65;5.90;;;15.30;99.90;;;;;;4956165;28;20469;-75
2022/10/21 04:55:43;;;;;;;14.77;6.50;;;15.30;99.90;;;;;;4955031;28;20074;-75
2022/10/21 04:58:11;;;;;;;12.65;5.95;;;15.20;99.90;;;;;;4961703;28;20026;-76
2022/10/21 05:00:37;;;;;;;15.38;6.20;;;15.30;99.90;;;;;;4963326;28;20114;-76
2022/10/21 05:03:03;;;;;;;15.23;5.68;;;15.20;99.90;;;;;;4958037;28;20166;-74
2022/10/21 05:05:28;;;;;;;10.30;6.25;;;15.30;99.90;;;;;;4961955;28;20031;-75
2022/10/21 05:07:54;;;;;;;15.20;6.55;;;15.30;99.90;;;;;;4956979;28;20041;-75
2022/10/21 05:10:21;;;;;;;11.00;6.00;;;15.40;99.90;;;;;;4960839;28;20444;-75
2022/10/21 05:12:46;;;;;;;14.45;6.15;;;15.30;99.90;;;;;;4958955;28;20011;-74
2022/10/21 05:15:13;;;;;;;15.38;6.13;;;15.40;99.90;;;;;;4962955;28;20416;-75
2022/10/21 05:17:39;;;;;;;7.95;5.70;;;15.40;99.90;;;;;;4960866;28;20074;-75
2022/10/21 05:20:05;;;;;;;12.13;5.93;;;15.40;99.90;;;;;;4953658;28;20067;-75
2022/10/21 05:22:31;;;;;;;14.48;6.47;;;15.40;99.90;;;;;;4948532;28;20030;-75
2022/10/21 05:24:57;;;;;;;17.98;5.90;;;15.40;99.90;;;;;;4966886;28;20062;-75
2022/10/21 05:27:23;;;;;;;10.90;6.07;;;15.40;99.90;;;;;;4956940;28;20028;-75
2022/10/21 05:29:51;;;;;;;11.88;6.07;;;15.30;99.90;;;;;;4948707;28;20445;-74
2022/10/21 05:32:16;;;;;;;13.68;5.88;;;15.30;99.90;;;;;;4953097;28;20031;-75
2022/10/21 05:34:44;;;;;;;8.32;5.55;;;15.30;99.90;;;;;;4953634;28;20023;-75
2022/10/21 05:37:09;;;;;;;14.27;6.13;;;15.30;99.90;;;;;;4952627;28;20061;-75
2022/10/21 05:39:35;;;;;;;12.30;6.32;;;15.20;99.90;;;;;;4958910;28;20027;-75
2022/10/21 05:42:01;;;;;;;12.40;6.50;;;15.20;99.90;;;;;;4961715;28;20131;-75
2022/10/21 05:44:29;;;;;;;16.75;5.75;;;15.30;99.90;;;;;;4963717;28;20406;-74
2022/10/21 05:46:54;;;;;;;11.43;6.53;;;15.20;99.90;;;;;;4946714;28;20051;-75
2022/10/21 05:49:20;;;;;;;14.50;6.03;;;15.30;99.90;;;;;;4956986;28;20035;-75
2022/10/21 05:51:45;;;;;;;18.73;6.13;;;15.30;99.90;;;;;;4949636;28;20113;-76
2022/10/21 05:54:13;;;;;;;14.43;6.00;;;15.30;99.90;;;;;;4952737;28;20353;-73
2022/10/21 05:56:41;;;;;;;10.10;6.65;;;15.30;99.90;;;;;;4963398;28;20082;-73
2022/10/21 05:59:07;;;;;;;14.95;6.10;;;15.30;99.90;;;;;;4961043;28;20094;-74
2022/10/21 06:01:33;;;;;;;9.93;6.47;;;15.40;99.90;;;;;;4955876;28;20023;-75
2022/10/21 06:03:58;;;;;;;12.20;6.25;;;15.40;99.90;;;;;;4960677;28;20046;-75
2022/10/21 06:06:24;;;;;;;13.20;6.32;;;15.40;99.90;;;;;;4969527;28;20027;-76
2022/10/21 06:08:50;;;;;;;15.32;6.35;;;15.40;99.90;;;;;;4960562;28;20034;-76
2022/10/21 06:11:19;;;;;;;16.20;6.57;;;15.40;99.90;;;;;;4954286;28;20099;-76
2022/10/21 06:13:46;;;;;;;12.25;6.15;;;15.40;99.90;;;;;;4954363;28;20031;-75
2022/10/21 06:16:13;;;;;;;10.27;5.70;;;15.30;99.90;;;;;;4954607;28;20031;-74
2022/10/21 06:18:39;;;;;;;10.15;5.35;;;15.40;99.90;;;;;;4956264;28;20028;-75
2022/10/21 06:21:05;;;;;;;12.48;5.97;;;15.40;99.90;;;;;;4953556;28;20066;-75
2022/10/21 06:23:31;;;;;;;13.45;6.00;;;15.40;99.90;;;;;;4963200;28;20055;-75
2022/10/21 06:25:59;;;;;;;18.02;6.18;;;15.40;99.90;;;;;;4958182;28;20031;-75
2022/10/21 06:28:26;;;;;;;10.82;5.22;;;15.40;99.90;;;;;;4954428;28;20036;-74
2022/10/21 06:30:54;;;;;;;7.93;5.78;;;15.40;99.90;;;;;;4955211;28;20038;-73
2022/10/21 06:33:20;;;;;;;13.95;6.88;;;15.50;99.90;;;;;;4955582;28;20127;-75
2022/10/21 06:35:46;;;;;;;8.88;5.00;;;15.50;99.90;;;;;;4950303;28;20039;-75
2022/10/21 06:38:12;;;;;;;10.73;4.55;;;15.50;99.90;;;;;;4954763;28;20023;-75
2022/10/21 06:40:41;;;;;;;18.88;6.28;;;15.50;99.90;;;;;;4951349;28;20102;-75
2022/10/21 06:43:07;;;;;;;9.25;5.38;;;15.60;99.90;;;;;;4955322;28;20118;-75
2022/10/21 06:45:32;;;;;;;14.13;5.57;;;15.60;99.90;;;;;;4946221;28;20163;-75
2022/10/21 06:47:58;;;;;;;11.27;4.68;;;15.60;99.90;;;;;;4952526;28;20035;-75
2022/10/21 06:50:24;;;;;;;16.55;5.13;;;15.70;99.90;;;;;;4955117;28;20027;-75
2022/10/21 06:52:50;;;;;;;11.90;4.38;;;15.70;99.90;;;;;;4961199;28;20073;-75
2022/10/21 06:55:16;;;;;;;8.57;3.83;;;15.70;99.90;;;;;;4958465;28;20016;-75
2022/10/21 06:57:42;;;;;;;6.65;4.28;;;15.80;99.90;;;;;;4960599;28;20030;-74
2022/10/21 07:00:09;;;;;;;9.70;5.05;;;15.80;99.90;;;;;;4955716;28;20027;-75
2022/10/21 07:02:34;;;;;;;7.47;4.70;;;15.90;99.90;;;;;;4951771;28;20031;-74
2022/10/21 07:05:00;;;;;;;10.43;4.10;;;15.90;99.90;;;;;;4949430;28;20019;-74
2022/10/21 07:07:28;;;;;;;5.57;3.92;;;15.90;99.90;;;;;;4961851;28;20038;-75
2022/10/21 07:09:56;;;;;;;9.77;4.35;;;15.90;99.90;;;;;;4953790;28;20049;-75
2022/10/21 07:12:26;;;;;;;13.32;4.80;;;16.00;99.90;;;;;;4959180;28;20035;-74
2022/10/21 07:14:53;;;;;;;8.63;4.57;;;16.00;99.90;;;;;;4957912;28;20111;-74
2022/10/21 07:17:21;;;;;;;6.78;4.45;;;15.90;99.90;;;;;;4952498;28;20024;-75
2022/10/21 07:19:51;;;;;;;14.65;5.00;;;16.00;99.90;;;;;;4956382;28;20031;-76
2022/10/21 07:22:17;;;;;;;15.90;4.45;;;16.10;99.90;;;;;;4956719;28;20038;-74
2022/10/21 07:24:43;;;;;;;19.60;5.47;;;16.10;99.90;;;;;;4954794;28;20031;-75
2022/10/21 07:27:08;;;;;;;7.43;4.60;;;16.10;99.90;;;;;;4960013;28;20094;-74
2022/10/21 07:29:34;;;;;;;12.38;4.95;;;16.20;99.90;;;;;;4953052;28;20180;-74
2022/10/21 07:31:59;;;;;;;12.57;5.30;;;16.10;99.90;;;;;;4951481;28;20039;-75
2022/10/21 07:34:25;;;;;;;15.40;4.60;;;16.20;99.90;;;;;;4952033;28;20120;-74
2022/10/21 07:36:51;;;;;;;8.73;4.93;;;16.20;99.90;;;;;;4956816;28;20019;-76
2022/10/21 07:39:24;;;;;;;12.98;4.82;;;16.30;99.90;;;;;;4945767;28;20065;-74
2022/10/21 07:41:55;;;;;;;8.27;4.47;;;16.30;99.90;;;;;;4955966;28;20428;-75
2022/10/21 07:44:22;;;;;;;12.15;5.10;;;16.20;99.90;;;;;;4955336;28;20042;-75
2022/10/21 07:46:48;;;;;;;16.52;4.93;;;16.30;99.90;;;;;;4955523;28;20689;-76
2022/10/21 07:49:17;;;;;;;23.30;6.18;;;16.30;99.90;;;;;;4953135;28;20540;-76
2022/10/21 07:51:44;;;;;;;9.98;5.13;;;16.30;99.90;;;;;;4952114;28;20028;-75
2022/10/21 07:54:13;;;;;;;20.48;5.35;;;16.40;99.90;;;;;;4952254;28;20038;-76
2022/10/21 07:56:42;;;;;;;13.10;4.60;;;16.50;99.90;;;;;;4950351;28;20316;-75
2022/10/21 07:59:09;;;;;;;7.50;4.43;;;16.60;99.90;;;;;;4951422;28;20039;-75
2022/10/21 08:01:35;;;;;;;13.55;4.50;;;16.70;99.90;;;;;;4957444;28;20040;-73
2022/10/21 08:04:01;;;;;;;18.75;6.72;;;16.70;99.90;;;;;;4951468;28;20114;-74
2022/10/21 08:06:29;;;;;;;111.75;42.97;;;16.90;99.90;;;;;;4954371;28;20032;-75
2022/10/21 08:08:57;;;;;;;66.22;27.15;;;17.00;99.90;;;;;;4955400;28;20046;-73
2022/10/21 08:11:26;;;;;;;10.32;4.63;;;17.10;99.90;;;;;;4957224;28;20035;-76
2022/10/21 08:13:52;;;;;;;8.10;4.88;;;17.10;99.90;;;;;;4960212;28;20019;-75
2022/10/21 08:16:17;;;;;;;13.82;4.25;;;17.20;99.90;;;;;;4955863;28;20034;-76
2022/10/21 08:18:43;;;;;;;10.82;4.10;;;17.30;99.90;;;;;;4952479;28;20031;-76
2022/10/21 08:21:09;;;;;;;6.35;4.20;;;17.40;99.90;;;;;;4947339;28;20039;-77
2022/10/21 08:23:38;;;;;;;11.32;3.72;;;17.40;99.90;;;;;;4957391;28;20041;-74
2022/10/21 08:26:09;;;;;;;13.80;3.63;;;17.50;99.90;;;;;;4952816;28;20024;-77
2022/10/21 08:28:39;;;;;;;7.93;3.80;;;17.50;99.90;;;;;;4952850;28;20445;-76
2022/10/21 08:31:19;;;;;;;11.07;5.72;;;17.50;99.90;;;;;;4969065;28;20027;-75
2022/10/21 08:33:45;;;;;;;9.52;4.40;;;17.60;99.90;;;;;;4958650;28;20352;-74
2022/10/21 08:36:13;;;;;;;9.02;3.70;;;17.70;99.90;;;;;;4960137;28;20066;-75
2022/10/21 08:38:39;;;;;;;12.75;3.95;;;17.80;99.90;;;;;;4958609;28;20019;-76
2022/10/21 08:41:28;;;;;;;8.07;3.60;;;17.90;99.90;;;;;;4958466;28;20074;-76
2022/10/21 08:44:08;;;;;;;12.32;3.80;;;17.90;99.90;;;;;;4956707;28;20042;-75
2022/10/21 08:46:41;;;;;;;15.35;4.80;;;18.00;99.90;;;;;;4952261;28;20027;-76
2022/10/21 08:49:12;;;;;;;14.18;4.07;;;18.10;99.90;;;;;;4956359;28;20031;-74
2022/10/21 08:51:44;;;;;;;10.23;3.65;;;18.20;99.90;;;;;;4949431;28;20446;-75
2022/10/21 08:54:19;;;;;;;6.80;3.88;;;18.30;99.90;;;;;;4957780;28;20093;-75
2022/10/21 08:56:47;;;;;;;8.32;4.53;;;18.40;99.90;;;;;;4957617;28;20511;-74
2022/10/21 08:59:25;;;;;;;15.02;3.83;;;18.50;99.90;;;;;;4951262;28;20039;-76
2022/10/21 09:02:16;;;;;;;9.57;4.80;;;18.40;99.90;;;;;;4961034;28;20385;-74
2022/10/21 09:05:10;;;;;;;10.98;4.90;;;18.40;99.90;;;;;;4955355;28;20031;-75
2022/10/21 09:07:47;;;;;;;13.75;4.35;;;18.30;99.90;;;;;;4936785;28;20357;-74
2022/10/21 09:10:39;;;;;;;10.63;4.45;;;18.30;99.90;;;;;;4952553;28;20106;-74
2022/10/21 09:13:29;;;;;;;9.90;3.80;;;18.30;99.90;;;;;;4956643;28;20032;-75
2022/10/21 09:16:18;;;;;;;6.68;4.18;;;18.40;99.90;;;;;;4955007;28;20024;-74
2022/10/21 09:19:09;;;;;;;191.45;91.18;;;18.40;99.90;;;;;;4953149;28;20023;-71
2022/10/21 09:21:40;;;;;;;8.13;3.53;;;18.40;99.90;;;;;;4947837;28;20624;-76
2022/10/21 09:24:12;;;;;;;11.32;4.18;;;18.40;99.90;;;;;;4957534;28;20043;-75
2022/10/21 09:26:38;;;;;;;9.90;4.38;;;18.50;99.90;;;;;;4962539;28;20138;-75
2022/10/21 09:29:27;;;;;;;12.18;4.97;;;18.40;99.90;;;;;;4964140;28;20019;-76
2022/10/21 09:31:59;;;;;;;7.32;4.07;;;18.40;99.90;;;;;;4958085;28;20528;-75
2022/10/21 09:34:36;;;;;;;7.30;4.15;;;18.40;99.90;;;;;;4954019;28;20023;-75
2022/10/21 09:37:12;;;;;;;10.90;4.63;;;18.40;99.90;;;;;;4958802;28;20035;-76
2022/10/21 09:39:49;;;;;;;13.32;4.97;;;18.40;99.90;;;;;;4950526;28;20079;-75
2022/10/21 09:42:17;;;;;;;8.77;4.60;;;18.30;99.90;;;;;;4953527;28;20035;-76
2022/10/21 09:44:44;;;;;;;9.38;4.97;;;18.10;99.90;;;;;;4953803;28;20075;-76
2022/10/21 09:47:19;;;;;;;21.63;4.32;;;18.00;99.90;;;;;;4962015;28;20519;-80
2022/10/21 09:49:50;;;;;;;9.02;4.53;;;17.80;99.90;;;;;;4953358;28;20039;-76
2022/10/21 09:52:21;;;;;;;7.97;4.70;;;17.60;99.90;;;;;;4950634;28;20047;-76
2022/10/21 09:54:47;;;;;;;9.25;4.63;;;17.70;99.90;;;;;;4959588;28;20019;-75
2022/10/21 09:57:16;;;;;;;10.82;4.53;;;17.70;99.90;;;;;;4964537;28;20043;-75
2022/10/21 09:59:59;;;;;;;6.93;4.10;;;17.70;99.90;;;;;;4959590;28;20031;-77
2022/10/21 10:02:32;;;;;;;;;;;17.50;99.90;;;;;;4953967;28;20027;-76
2022/10/21 10:05:20;;;;;;;11.77;4.65;;;17.60;99.90;;;;;;4942266;28;19932;-75
2022/10/21 10:07:46;;;;;;;10.10;4.70;;;17.50;99.90;;;;;;4957608;28;20031;-77
2022/10/21 10:10:30;;;;;;;14.70;4.38;;;17.50;99.90;;;;;;4952985;28;20045;-74
2022/10/21 10:12:57;;;;;;;6.47;4.82;;;17.50;99.90;;;;;;4955260;28;20050;-77
2022/10/21 10:15:43;;;;;;;8.77;5.28;;;17.20;99.90;;;;;;4976465;28;20121;-76
2022/10/21 10:18:20;;;;;;;10.35;5.20;;;17.20;99.90;;;;;;4963747;28;20039;-75
2022/10/21 10:21:02;;;;;;;11.68;5.70;;;17.10;99.90;;;;;;4957986;28;20101;-76
2022/10/21 10:23:30;;;;;;;15.18;6.68;;;17.20;99.90;;;;;;4955403;28;20119;-76
2022/10/21 10:25:58;;;;;;;14.52;5.95;;;17.20;99.90;;;;;;4952336;28;20035;-74
2022/10/21 10:28:25;;;;;;;13.20;6.70;;;17.30;99.90;;;;;;4957157;28;20474;-76
2022/10/21 10:30:57;;;;;;;15.13;6.35;;;17.30;99.90;;;;;;4954345;28;20023;-75
2022/10/21 10:33:32;;;;;;;11.15;6.00;;;17.30;99.90;;;;;;4956628;28;20024;-75
2022/10/21 10:36:00;;;;;;;11.60;6.60;;;17.30;99.90;;;;;;4956700;28;20050;-74
2022/10/21 10:38:28;;;;;;;16.23;7.13;;;17.40;99.90;;;;;;4947057;28;20086;-76
2022/10/21 10:41:03;;;;;;;19.15;6.95;;;17.50;99.90;;;;;;4954870;28;20110;-75
2022/10/21 10:43:32;;;;;;;16.90;6.97;;;17.60;99.90;;;;;;4951384;28;20042;-75
2022/10/21 10:46:03;;;;;;;14.82;6.10;;;17.70;99.90;;;;;;4957872;28;20106;-74
2022/10/21 10:48:41;;;;;;;13.10;6.50;;;17.80;99.90;;;;;;4952470;28;20047;-75
2022/10/21 10:51:26;;;;;;;15.85;6.15;;;17.90;99.90;;;;;;4953489;28;20045;-74
2022/10/21 10:54:11;;;;;;;13.27;7.10;;;18.00;99.90;;;;;;4952958;28;20047;-77
2022/10/21 10:56:54;;;;;;;12.60;5.95;;;18.00;99.90;;;;;;4950622;28;20027;-75
2022/10/21 10:59:22;;;;;;;12.73;6.65;;;17.90;99.90;;;;;;4952321;28;20804;-74
2022/10/21 11:01:56;;;;;;;14.02;7.13;;;18.00;99.90;;;;;;4952670;28;20034;-73
2022/10/21 11:05:03;;;;;;;25.30;7.78;;;17.90;99.90;;;;;;4955388;28;20026;-74
2022/10/21 11:07:46;;;;;;;15.75;6.60;;;18.00;99.90;;;;;;4953683;28;20151;-74
2022/10/21 11:10:32;;;;;;;12.57;6.82;;;18.00;99.90;;;;;;4954190;28;20519;-75
2022/10/21 11:13:00;;;;;;;15.18;6.65;;;18.10;99.90;;;;;;4954093;28;20035;-76
2022/10/21 11:15:34;;;;;;;14.25;6.65;;;18.20;99.90;;;;;;4951258;28;20077;-75
2022/10/21 11:18:12;;;;;;;12.90;6.05;;;18.30;99.90;;;;;;4954257;28;20347;-74
2022/10/21 11:21:02;;;;;;;16.50;5.43;;;18.40;99.90;;;;;;4953181;28;20062;-75
2022/10/21 11:23:46;;;;;;;8.13;5.25;;;18.40;99.90;;;;;;4936889;28;20492;-74
2022/10/21 11:26:39;;;;;;;30.50;13.05;;;18.50;99.90;;;;;;4953498;28;20036;-72
2022/10/21 11:29:38;;;;;;;14.10;6.47;;;18.70;99.90;;;;;;4949178;28;20030;-76
2022/10/21 11:32:22;;;;;;;13.77;5.03;;;18.80;99.90;;;;;;4954077;28;20037;-76
2022/10/21 11:35:00;;;;;;;11.57;4.95;;;18.90;99.90;;;;;;4954428;28;20057;-74
2022/10/21 11:38:04;;;;;;;7.45;4.85;;;19.00;99.90;;;;;;4948762;28;20129;-73
2022/10/21 11:40:34;;;;;;;12.57;5.32;;;19.20;99.90;;;;;;4958870;28;20050;-75
2022/10/21 11:43:20;;;;;;;10.77;4.75;;;19.40;99.90;;;;;;4949017;28;20064;-75
2022/10/21 11:45:59;;;;;;;9.95;4.82;;;19.60;99.90;;;;;;4954781;28;20027;-74
2022/10/21 11:48:48;;;;;;;10.18;4.95;;;19.70;99.90;;;;;;4943183;28;20042;-75
2022/10/21 11:51:38;;;;;;;11.60;5.10;;;19.80;99.90;;;;;;4950301;28;20067;-74
2022/10/21 11:54:33;;;;;;;6.57;5.32;;;19.80;99.90;;;;;;4951985;28;20018;-76
2022/10/21 11:57:23;;;;;;;11.75;4.72;;;19.90;99.90;;;;;;4943934;28;20046;-75
2022/10/21 12:00:04;;;;;;;7.38;4.82;;;20.10;99.90;;;;;;4959917;28;20120;-76
2022/10/21 12:03:15;;;;;;;9.73;4.63;;;20.20;99.90;;;;;;4950465;28;20027;-75
2022/10/21 12:06:03;;;;;;;12.30;4.90;;;20.30;99.90;;;;;;4943846;28;20047;-74
2022/10/21 12:08:58;;;;;;;7.03;4.95;;;20.40;99.90;;;;;;4959144;28;20062;-75
2022/10/21 12:11:39;;;;;;;9.77;4.50;;;20.40;99.90;;;;;;4949077;28;20520;-76
2022/10/21 12:14:28;;;;;;;10.52;5.05;;;20.50;99.90;;;;;;4949106;28;20031;-76
2022/10/21 12:16:57;;;;;;;9.13;4.07;;;20.70;99.90;;;;;;4959489;28;20074;-75
2022/10/21 12:19:24;;;;;;;8.88;4.20;;;20.80;99.90;;;;;;4954196;28;20031;-75
2022/10/21 12:21:50;;;;;;;11.70;4.53;;;20.80;99.90;;;;;;4950830;28;20035;-75
2022/10/21 12:24:40;;;;;;;11.35;4.25;;;20.80;99.90;;;;;;4949246;28;20055;-75
2022/10/21 12:27:30;;;;;;;8.93;4.93;;;21.00;99.90;;;;;;4949943;28;20542;-74
2022/10/21 12:30:13;;;;;;;7.07;4.18;;;21.10;99.90;;;;;;4947177;28;20456;-76
2022/10/21 12:33:03;;;;;;;7.77;4.73;;;21.30;99.90;;;;;;4951053;28;20082;-76
2022/10/21 12:35:49;;;;;;;7.72;4.43;;;21.40;99.90;;;;;;4949978;28;20063;-73
2022/10/21 12:38:50;;;;;;;11.43;4.07;;;21.60;99.90;;;;;;4944458;28;20023;-75
2022/10/21 12:41:36;;;;;;;13.32;4.50;;;21.70;99.90;;;;;;4953013;28;20054;-75
2022/10/21 12:44:02;;;;;;;9.40;3.90;;;21.60;99.90;;;;;;4947633;28;20795;-75
2022/10/21 12:46:36;;;;;;;7.45;3.90;;;21.80;99.90;;;;;;4953840;28;20066;-75
2022/10/21 12:49:19;;;;;;;6.43;3.78;;;21.70;99.90;;;;;;4955660;28;20070;-75
2022/10/21 12:52:01;;;;;;;5.47;3.13;;;21.50;99.90;;;;;;4957442;28;20455;-75
2022/10/21 12:54:42;;;;;;;15.70;3.58;;;21.40;99.90;;;;;;4951995;28;20058;-75
2022/10/21 12:57:11;;;;;;;10.18;3.33;;;21.50;99.90;;;;;;4952960;28;20038;-74
2022/10/21 12:59:36;;;;;;;4.65;2.97;;;22.40;99.90;;;;;;4951970;28;20460;-75
2022/10/21 13:02:05;;;;;;;6.55;2.97;;;23.00;99.90;;;;;;4948899;29;20146;-75
2022/10/21 13:04:33;;;;;;;5.40;3.53;;;23.20;99.90;;;;;;4948092;28;20027;-75